Latest Coastal Weather Observations for Hobart Airport

IDT60701

Issued at 2:22 am EDT Friday 19 December 2014 (issued every 10 minutes, with the page automatically refreshed every 10 minutes)

About coastal observations | Map of coastal stations | Coastal observations for TAS | Marine services | Other Formats
Station Details ID: 094008 Name: HOBART AIRPORT Lat: -42.83 Lon: 147.50 Height: 4.0 m
Data from the previous 72 hours. | See also: Recent months at Hobart Airport
Date/Time
EDT
Temp

°C
Wind Pressure Rain
since 9am
mm
Weather Cloud Vis
km
Sea
Height
m
Swell
Dir
 
Speed
knots
Gust
knots
hPa Trend Height
m
Period
s
Dir
19/02:00am 9.0 NNW 4 5 1007.8 - 0.4 - Mostly clear 10 - - - -
19/01:30am 11.4 W 5 7 1007.7 - 0.4 - Mostly clear 10 - - - -
19/12:30am 11.2 WNW 7 9 1007.2 - 0.4 - Partly cloudy 10 - - - -
 
Date/Time
EDT
Temp

°C
Wind Pressure Rain
since 9am
mm
Weather Cloud Vis
km
Sea
Height
m
Swell
Dir
 
Speed
knots
Gust
knots
hPa Trend Height
m
Period
s
Dir
18/11:30pm 11.3 W 6 8 1006.7 - 0.4 - Mostly clear 10 - - - -
18/11:00pm 12.3 WSW 6 10 1006.6 - 0.4 - Mostly clear 10 - - - -
18/10:30pm 13.1 WNW 8 12 1006.3 - 0.4 - Mostly clear 10 - - - -
18/10:00pm 13.1 WSW 7 10 1006.0 - 0.4 - Partly cloudy 10 - - - -
18/09:30pm 14.3 W 13 18 1005.2 - 0.4 - Partly cloudy 10 - - - -
18/09:00pm 14.9 WNW 15 20 1004.4 R 0.4 Fine Mostly cloudy 40 - - - -
18/08:30pm 15.5 WNW 15 19 1003.8 - 0.4 - Partly cloudy 10 - - - -
18/08:00pm 15.8 W 16 21 1003.2 - 0.4 - Mostly clear 10 - - - -
18/07:30pm 16.8 W 14 23 1002.5 - 0.4 - Mostly clear 10 - - - -
18/07:00pm 17.0 WNW 11 17 1001.8 - 0.4 - Mostly clear 10 - - - -
18/06:30pm 16.7 NW 12 16 1001.6 - 0.4 - Mostly clear 10 - - - -
18/06:00pm 16.2 NW 11 17 1001.3 R 0.4 Fine Mostly cloudy 40 - - - -
18/05:30pm 15.6 NW 13 19 1001.1 - 0.4 - Mostly clear 10 - - - -
18/05:00pm 15.3 NNW 11 17 1001.0 - 0.4 - Mostly clear 10 - - - -
18/04:30pm 15.0 NNW 13 18 1000.8 - 0.4 Showers Mostly clear 10 - - - -
18/04:00pm 15.8 WNW 15 22 1000.5 - 0.4 - Mostly clear 10 - - - -
18/03:49pm 16.2 NNW 13 30 1000.4 - 0.0 Showers Mostly clear 10 - - - -
18/03:30pm 19.2 N 16 24 999.7 - 0.0 Showers Mostly clear 10 - - - -
18/03:10pm 20.4 N 16 26 999.4 - 0.0 Showers Mostly clear 10 - - - -
18/03:00pm 20.2 N 18 26 999.5 F 0.0 Showers Cloudy 30 - - - -
18/02:45pm 20.0 N 16 26 999.4 - 0.0 - Mostly clear 10 - - - -
18/02:30pm 20.0 N 18 26 999.4 - 0.0 - Mostly clear 10 - - - -
18/02:19pm 19.8 N 17 27 999.4 - 0.0 - Mostly clear 10 - - - -
18/02:00pm 21.4 N 16 22 999.7 - 0.0 - Mostly clear 10 - - - -
18/01:30pm 20.5 N 16 25 1000.3 - 0.0 - Mostly clear 10 - - - -
18/01:06pm 19.5 N 19 29 1000.4 - 0.0 - Mostly clear 10 - - - -
18/01:00pm 19.9 N 19 28 1000.3 - 0.0 - Mostly clear 10 - - - -
18/12:30pm 21.6 N 17 26 1000.6 - 0.0 - Mostly clear 10 - - - -
18/12:25pm 20.8 N 15 25 1000.6 - 0.0 - Mostly clear 10 - - - -
18/12:00pm 19.4 N 13 19 1001.2 F 0.0 Fine Mostly cloudy 40 - - - -
18/11:30am 18.6 N 15 21 1001.7 - 0.0 - Mostly clear 10 - - - -
18/11:00am 17.9 N 13 18 1002.0 - 0.0 - Mostly clear 10 - - - -
18/10:30am 17.3 N 14 19 1002.4 - 0.0 - Mostly clear 10 - - - -
18/10:00am 18.4 N 11 17 1002.7 - 0.0 - Mostly clear 10 - - - -
18/09:30am 16.0 WNW 5 7 1003.3 - 0.0 - Mostly clear 10 - - - -
18/09:00am 14.7 NW 7 10 1003.7 F 0.0 Fine Mostly clear 40 - - - -
18/08:30am 13.4 NW 9 11 1004.0 - 0.0 - Mostly clear 10 - - - -
18/08:00am 11.9 NW 10 13 1004.2 - 0.0 - Cloudy 10 - - - -
18/07:30am 11.5 NW 11 16 1004.2 - 0.0 - Partly cloudy 10 - - - -
18/07:00am 10.9 NW 8 11 1004.0 - 0.0 - - 10 - - - -
18/06:30am 10.8 NW 9 15 1004.0 - 0.0 - - 10 - - - -
18/06:00am 10.5 NNW 8 13 1004.0 F 0.0 Fine Mostly cloudy 35 - - - -
18/05:30am 10.7 NNW 9 12 1003.8 - 0.0 - - 10 - - - -
18/05:00am 9.5 WNW 7 9 1003.8 - 0.0 - - 10 - - - -
18/04:30am 10.8 N 6 8 1003.8 - 0.0 - - 10 - - - -
18/04:00am 9.6 NW 7 9 1003.9 - 0.0 - - 10 - - - -
18/03:30am 10.1 NW 5 6 1004.0 - 0.0 - - 10 - - - -
18/03:00am 10.0 NW 5 6 1004.1 F 0.0 Fine Mostly clear 35 - - - -
18/02:30am 9.7 CALM 0 4 1004.0 - 0.0 - - 10 - - - -
18/02:00am 10.9 SSW 3 4 1004.2 - 0.0 - - 10 - - - -
18/01:30am 12.1 NNW 5 6 1004.5 - 0.0 - - 10 - - - -
18/01:00am 12.4 NW 5 5 1005.0 - 0.0 - - 10 - - - -
18/12:30am 12.6 NNW 6 7 1005.0 - 0.0 - - 10 - - - -
18/12:00am 13.0 NNW 6 8 1005.3 F 0.0 Fine Mostly clear 35 - - - -
 
Date/Time
EDT
Temp

°C
Wind Pressure Rain
since 9am
mm
Weather Cloud Vis
km
Sea
Height
m
Swell
Dir
 
Speed
knots
Gust
knots
hPa Trend Height
m
Period
s
Dir
17/11:30pm 13.0 NNW 5 6 1005.5 - 0.0 - Partly cloudy 10 - - - -
17/11:00pm 14.8 NNW 6 9 1005.7 - 0.0 - Partly cloudy 10 - - - -
17/10:30pm 15.2 N 8 13 1006.0 - 0.0 - Mostly clear 10 - - - -
17/10:00pm 15.0 NNE 8 12 1006.0 - 0.0 - Mostly clear 10 - - - -
17/09:30pm 15.3 NE 11 14 1005.9 - 0.0 - Mostly clear 10 - - - -
17/09:00pm 15.6 NE 10 13 1005.7 R 0.0 Fine Mostly cloudy 35 - - - -
17/08:30pm 15.7 E 7 12 1005.5 - 0.0 - Cloudy 10 - - - -
17/08:00pm 15.8 ESE 7 13 1005.5 - 0.0 - Cloudy 10 - - - -
17/07:30pm 17.0 WSW 9 12 1005.1 - 0.0 - Partly cloudy 10 - - - -
17/07:00pm 17.4 WNW 9 16 1004.5 - 0.0 - Partly cloudy 10 - - - -
17/06:30pm 18.8 WNW 9 14 1004.1 - 0.0 - - 10 - - - -
17/06:00pm 18.0 WNW 11 16 1003.9 S 0.0 Fine Mostly cloudy 40 - - - -
17/05:30pm 18.0 WNW 10 16 1004.0 - 0.0 - - 10 - - - -
17/05:00pm 18.0 WNW 13 17 1004.1 - 0.0 - Partly cloudy 10 - - - -
17/04:30pm 17.6 NW 15 21 1004.1 - 0.0 - Cloudy 10 - - - -
17/04:00pm 18.1 WNW 11 16 1003.8 - 0.0 - Partly cloudy 10 - - - -
17/03:30pm 19.4 NW 13 19 1003.7 - 0.0 - - 10 - - - -
17/03:00pm 17.7 WNW 13 18 1003.8 R 0.0 Fine Partly cloudy 40 - - - -
17/02:38pm 17.5 W 18 28 1004.2 - 0.0 Showers Mostly clear 10 - - - -
17/02:30pm 16.0 WNW 19 28 1004.2 - 0.0 Showers Mostly clear 10 - - - -
17/02:00pm 17.8 W 17 22 1003.8 - 0.0 - Mostly clear 10 - - - -
17/01:30pm 17.3 WSW 12 17 1003.7 - 0.0 - Mostly clear 10 - - - -
17/01:10pm 16.9 W 17 27 1003.7 - 0.0 - Mostly clear 10 - - - -
17/01:00pm 17.5 WNW 16 23 1003.5 - 0.0 - Mostly clear 10 - - - -
17/12:30pm 16.1 W 13 20 1003.6 - 0.0 - Mostly clear 10 - - - -
17/12:00pm 14.5 W 12 17 1003.5 R 0.0 Fine Partly cloudy 40 - - - -
17/11:30am 15.0 WNW 9 17 1003.2 - 0.0 Showers Mostly clear 10 - - - -
17/11:00am 14.3 W 15 20 1002.8 - 0.0 - Mostly clear 10 - - - -
17/10:30am 14.4 NW 14 20 1002.7 - 0.0 - Mostly clear 10 - - - -
17/10:00am 12.8 WNW 17 22 1002.6 - 0.0 - Mostly clear 10 - - - -
17/09:30am 13.8 NW 17 19 1002.1 - 0.0 - Mostly clear 10 - - - -
17/09:00am 14.1 W 17 27 1001.9 R 9.2 Distant precip. Mostly clear 40 - - - -
17/08:59am 14.0 WNW 17 27 1001.9 - 9.2 - Mostly clear 10 - - - -
17/08:30am 13.9 WNW 16 21 1001.4 - 9.2 - Mostly clear 10 - - - -
17/08:00am 12.4 WNW 14 20 1000.9 - 9.2 - Mostly clear 10 - - - -
17/07:30am 12.8 WNW 13 15 1000.4 - 9.2 - Mostly clear 10 - - - -
17/07:00am 12.4 WNW 16 20 999.6 - 9.2 - Mostly clear 10 - - - -
17/06:30am 11.5 WNW 10 15 999.1 - 9.2 - Mostly clear 10 - - - -
17/06:00am 11.4 W 13 20 998.0 R 9.2 Fine Mostly clear 25 - - - -
17/05:30am 11.1 W 17 20 997.6 - 9.2 - Partly cloudy 10 - - - -
17/05:00am 11.4 WNW 16 22 997.5 - 9.2 - Mostly clear 10 - - - -
17/04:30am 11.7 WNW 15 19 996.7 - 9.2 - Mostly clear 10 - - - -
17/04:00am 11.8 WNW 14 18 996.1 - 9.2 - Mostly clear 10 - - - -
17/03:30am 12.0 WNW 13 17 995.4 - 9.2 - Mostly clear 10 - - - -
17/03:00am 12.0 WNW 14 19 994.8 R 9.2 Fine Mostly clear 25 - - - -
17/02:30am 12.7 W 13 19 994.4 - 9.2 - Mostly clear 10 - - - -
17/02:00am 12.0 W 7 12 994.0 - 9.2 - Mostly clear 10 - - - -
17/01:30am 12.4 WNW 11 15 993.6 - 9.2 Showers Mostly clear 10 - - - -
17/01:00am 13.2 WNW 10 15 992.7 - 8.8 - Mostly clear 10 - - - -
17/12:30am 13.0 NNW 8 11 992.2 - 8.8 - Mostly clear 10 - - - -
17/12:00am 13.1 NW 13 17 992.0 R 8.8 Showers Mostly cloudy 16 - - - -
 
Date/Time
EDT
Temp

°C
Wind Pressure Rain
since 9am
mm
Weather Cloud Vis
km
Sea
Height
m
Swell
Dir
 
Speed
knots
Gust
knots
hPa Trend Height
m
Period
s
Dir
16/11:30pm 13.3 WNW 16 22 991.5 - 8.8 - Mostly clear 10 - - - -
16/11:00pm 13.8 WNW 12 18 991.4 - 8.8 - Mostly clear 10 - - - -
16/10:30pm 13.8 NW 18 22 990.2 - 8.8 - Mostly clear 10 - - - -
16/10:00pm 14.2 NW 17 23 990.0 - 8.8 - Mostly clear 10 - - - -
16/09:30pm 15.3 WNW 20 26 988.9 - 8.8 - Mostly clear 10 - - - -
16/09:18pm 15.4 W 17 28 988.5 - 8.8 - Mostly clear 10 - - - -
16/09:00pm 16.1 WNW 17 22 987.7 R 8.8 Distant precip. Mostly cloudy 25 - - - -
16/08:35pm 16.2 NNW 16 26 985.9 - 8.8 - Mostly clear 10 - - - -
16/08:30pm 16.4 NNW 16 22 986.1 - 8.8 - Mostly clear 10 - - - -
16/08:00pm 15.9 NNW 16 26 986.2 - 8.8 - Mostly clear 10 - - - -
16/07:58pm 16.0 NNW 15 26 986.1 - 8.8 - Mostly clear 10 - - - -
16/07:30pm 15.4 N 11 15 986.1 - 8.8 - Mostly clear 10 - - - -
16/07:11pm 15.2 NNW 11 17 986.2 - 8.8 Thunder Mostly clear 10 - - - -
16/07:00pm 14.6 N 11 26 986.9 - 8.8 - Mostly clear 5 - - - -
16/06:44pm 15.2 S 8 10 985.3 - 6.4 Thunderstorm Mostly clear 5 - - - -
16/06:30pm 15.3 ESE 6 8 985.5 - 6.0 Thunderstorm Mostly clear 10 - - - -
16/06:00pm 15.2 SE 10 15 985.7 R 5.8 Thunderstorm Mostly cloudy 10 - - - -
16/05:46pm 15.3 SSE 10 12 984.9 - 5.4 Thunder Mostly clear 10 - - - -
16/05:30pm 15.6 SSE 12 18 985.0 - 3.6 Thunderstorm Mostly clear 5 - - - -
16/05:18pm 15.9 S 16 26 986.0 - 0.6 Thunderstorm Partly cloudy 3 - - - -
16/05:12pm 16.4 S 18 24 984.0 - 0.0 Hailstorm Partly cloudy 6 - - - -
16/05:00pm 17.0 SSE 18 25 982.6 - 0.0 - Mostly clear 10 - - - -
16/04:30pm 18.4 SSE 20 28 982.8 - 0.0 - Mostly clear 10 - - - -
16/04:25pm 19.1 SE 17 27 982.9 - 0.0 - Mostly clear 10 - - - -
16/04:00pm 19.1 SSE 19 24 983.2 - 0.0 - Mostly clear 10 - - - -
16/03:30pm 19.9 SSW 16 22 983.5 - 0.0 - Mostly clear 10 - - - -
16/03:16pm 21.2 SW 15 26 984.0 - 0.0 - Mostly clear 10 - - - -
16/03:00pm 23.6 WSW 11 20 984.2 F 0.0 Distant precip. Partly cloudy 25 - - - -
16/02:53pm 24.1 WNW 20 32 984.4 - 0.0 - Mostly clear 10 - - - -
16/02:50pm 25.6 NNW 21 32 984.7 - 0.0 - Mostly clear 10 - - - -
16/02:30pm 29.5 N 19 30 983.6 - 0.0 - Mostly clear 10 - - - -
16/02:00pm 29.5 N 17 27 984.5 - 0.0 - Mostly clear 10 - - - -
16/01:39pm 29.1 N 17 27 985.2 - 0.0 - Mostly clear 10 - - - -
16/01:30pm 28.5 N 16 23 985.3 - 0.0 - Mostly clear 10 - - - -
16/01:24pm 29.2 NNW 16 27 985.6 - 0.0 - Mostly clear 10 - - - -
16/01:14pm 28.4 E 5 12 986.1 - 0.0 - Mostly clear 10 - - - -
16/01:00pm 23.3 SE 7 9 986.8 - 0.0 - Mostly clear 10 - - - -
16/12:30pm 24.0 NNE 6 10 987.7 - 0.0 - Mostly clear 10 - - - -
16/12:00pm 24.3 NE 8 13 988.5 F 0.0 Distant precip. Mostly cloudy 30 - - - -
16/11:30am 24.2 SSE 8 14 989.4 - 0.0 - Mostly clear 10 - - - -
16/11:00am 22.5 SSE 7 9 990.5 - 0.0 - Mostly clear 10 - - - -
16/10:30am 21.7 ESE 4 6 991.6 - 0.0 - Mostly clear 10 - - - -
16/10:00am 20.3 ENE 6 8 992.3 - 0.0 - Mostly clear 10 - - - -
16/09:30am 19.3 NE 6 10 993.2 - 0.0 - Mostly clear 10 - - - -
16/09:00am 18.0 ENE 5 6 993.8 F 0.0 Distant precip. Partly cloudy 25 - - - -
16/08:30am 17.1 WSW 5 6 994.5 - 0.0 - Mostly clear 10 - - - -
16/08:00am 16.1 WNW 6 7 995.0 - 0.0 - Mostly clear 10 - - - -
16/07:30am 14.6 NNW 6 8 995.2 - 0.0 - Mostly clear 10 - - - -
16/07:00am 13.5 NW 8 10 995.4 - 0.0 - Mostly clear 10 - - - -
16/06:30am 12.7 WNW 6 7 996.1 - 0.0 - Mostly clear 10 - - - -
16/06:00am 12.7 NW 6 7 996.6 F 0.0 Haze Mostly clear 20 - - - -
16/05:30am 11.7 W 6 7 997.5 - 0.0 - Mostly clear 10 - - - -
16/05:00am 13.1 NNW 5 6 998.0 - 0.0 - Mostly clear 10 - - - -
16/04:30am 13.6 NNE 7 10 998.5 - 0.0 - Partly cloudy 10 - - - -
16/04:00am 13.6 NNW 6 8 998.7 - 0.0 - Mostly clear 10 - - - -
16/03:30am 13.2 NW 6 6 999.0 - 0.0 - Mostly clear 10 - - - -
16/03:23am 13.1 NW 5 6 999.1 - 0.0 - Partly cloudy 10 - - - -
16/03:00am 13.7 NNW 2 4 999.6 F 0.0 Haze Mostly cloudy 20 - - - -
16/02:30am 13.7 WNW 4 5 1000.2 - 0.0 - Mostly cloudy 10 - - - -

Other Formats:

Comma delimited format used in spreadsheet applications
http://www.bom.gov.au/fwo/IDT60701/IDT60701.94975.axf

JavaScript Object Notation format (JSON) in row-major order
http://www.bom.gov.au/fwo/IDT60701/IDT60701.94975.json